sensor_id;sensor_type;location;lat;lon;timestamp;P1;durP1;ratioP1;P2;durP2;ratioP2
41446;SDS011;27185;52.040;4.490;2023-04-15T00:02:02;4.43;;;2.28;;
41446;SDS011;27185;52.040;4.490;2023-04-15T00:04:58;7.40;;;2.60;;
41446;SDS011;27185;52.040;4.490;2023-04-15T00:07:43;8.38;;;2.67;;
41446;SDS011;27185;52.040;4.490;2023-04-15T00:10:31;10.55;;;3.40;;
41446;SDS011;27185;52.040;4.490;2023-04-15T00:13:16;6.40;;;2.35;;
41446;SDS011;27185;52.040;4.490;2023-04-15T00:16:02;4.72;;;2.30;;
41446;SDS011;27185;52.040;4.490;2023-04-15T00:18:48;5.38;;;2.58;;
41446;SDS011;27185;52.040;4.490;2023-04-15T00:21:33;7.07;;;2.83;;
41446;SDS011;27185;52.040;4.490;2023-04-15T00:24:19;4.28;;;2.17;;
41446;SDS011;27185;52.040;4.490;2023-04-15T00:27:05;7.13;;;2.50;;
41446;SDS011;27185;52.040;4.490;2023-04-15T00:29:51;4.68;;;2.70;;
41446;SDS011;27185;52.040;4.490;2023-04-15T00:32:36;7.30;;;2.75;;
41446;SDS011;27185;52.040;4.490;2023-04-15T00:35:22;6.25;;;2.58;;
41446;SDS011;27185;52.040;4.490;2023-04-15T00:38:07;5.75;;;2.58;;
41446;SDS011;27185;52.040;4.490;2023-04-15T00:40:53;7.22;;;3.00;;
41446;SDS011;27185;52.040;4.490;2023-04-15T00:43:41;7.35;;;3.63;;
41446;SDS011;27185;52.040;4.490;2023-04-15T00:46:27;6.38;;;3.15;;
41446;SDS011;27185;52.040;4.490;2023-04-15T00:52:02;6.57;;;3.38;;
41446;SDS011;27185;52.040;4.490;2023-04-15T00:54:48;6.60;;;3.70;;
41446;SDS011;27185;52.040;4.490;2023-04-15T00:57:35;13.32;;;3.70;;
41446;SDS011;27185;52.040;4.490;2023-04-15T01:00:20;6.25;;;3.38;;
41446;SDS011;27185;52.040;4.490;2023-04-15T01:03:06;10.30;;;3.75;;
41446;SDS011;27185;52.040;4.490;2023-04-15T01:05:52;8.55;;;3.63;;
41446;SDS011;27185;52.040;4.490;2023-04-15T01:08:42;9.23;;;4.75;;
41446;SDS011;27185;52.040;4.490;2023-04-15T01:11:29;7.03;;;3.60;;
41446;SDS011;27185;52.040;4.490;2023-04-15T01:14:18;10.07;;;3.85;;
41446;SDS011;27185;52.040;4.490;2023-04-15T01:17:04;7.50;;;3.53;;
41446;SDS011;27185;52.040;4.490;2023-04-15T01:19:50;10.02;;;3.97;;
41446;SDS011;27185;52.040;4.490;2023-04-15T01:22:36;6.57;;;3.75;;
41446;SDS011;27185;52.040;4.490;2023-04-15T01:25:29;7.13;;;3.85;;
41446;SDS011;27185;52.040;4.490;2023-04-15T01:28:17;7.35;;;3.30;;
41446;SDS011;27185;52.040;4.490;2023-04-15T01:33:55;6.47;;;3.47;;
41446;SDS011;27185;52.040;4.490;2023-04-15T01:36:41;7.68;;;4.05;;
41446;SDS011;27185;52.040;4.490;2023-04-15T01:39:26;10.00;;;4.05;;
41446;SDS011;27185;52.040;4.490;2023-04-15T01:42:12;8.73;;;4.32;;
41446;SDS011;27185;52.040;4.490;2023-04-15T01:44:58;8.55;;;3.83;;
41446;SDS011;27185;52.040;4.490;2023-04-15T01:47:43;8.57;;;3.95;;
41446;SDS011;27185;52.040;4.490;2023-04-15T01:50:29;7.05;;;4.15;;
41446;SDS011;27185;52.040;4.490;2023-04-15T01:53:15;8.48;;;4.85;;
41446;SDS011;27185;52.040;4.490;2023-04-15T01:56:01;7.57;;;4.43;;
41446;SDS011;27185;52.040;4.490;2023-04-15T01:58:46;7.20;;;3.83;;
41446;SDS011;27185;52.040;4.490;2023-04-15T02:01:32;5.82;;;4.20;;
41446;SDS011;27185;52.040;4.490;2023-04-15T02:04:18;10.10;;;4.18;;
41446;SDS011;27185;52.040;4.490;2023-04-15T02:07:03;6.82;;;4.35;;
41446;SDS011;27185;52.040;4.490;2023-04-15T02:09:49;7.75;;;4.20;;
41446;SDS011;27185;52.040;4.490;2023-04-15T02:12:34;8.30;;;4.18;;
41446;SDS011;27185;52.040;4.490;2023-04-15T02:15:20;8.85;;;4.28;;
41446;SDS011;27185;52.040;4.490;2023-04-15T02:18:06;6.50;;;4.40;;
41446;SDS011;27185;52.040;4.490;2023-04-15T02:20:52;9.23;;;4.10;;
41446;SDS011;27185;52.040;4.490;2023-04-15T02:23:37;8.77;;;4.55;;
41446;SDS011;27185;52.040;4.490;2023-04-15T02:26:23;7.78;;;4.72;;
41446;SDS011;27185;52.040;4.490;2023-04-15T02:29:09;8.90;;;5.13;;
41446;SDS011;27185;52.040;4.490;2023-04-15T02:31:55;9.32;;;4.10;;
41446;SDS011;27185;52.040;4.490;2023-04-15T02:34:40;7.00;;;4.82;;
41446;SDS011;27185;52.040;4.490;2023-04-15T02:37:26;9.57;;;4.95;;
41446;SDS011;27185;52.040;4.490;2023-04-15T02:40:14;8.10;;;5.40;;
41446;SDS011;27185;52.040;4.490;2023-04-15T02:42:59;8.48;;;5.07;;
41446;SDS011;27185;52.040;4.490;2023-04-15T02:45:45;7.50;;;4.88;;
41446;SDS011;27185;52.040;4.490;2023-04-15T02:48:31;9.45;;;4.90;;
41446;SDS011;27185;52.040;4.490;2023-04-15T02:51:17;7.38;;;4.78;;
41446;SDS011;27185;52.040;4.490;2023-04-15T02:54:04;8.00;;;4.63;;
41446;SDS011;27185;52.040;4.490;2023-04-15T02:56:50;7.88;;;5.13;;
41446;SDS011;27185;52.040;4.490;2023-04-15T02:59:39;8.23;;;4.90;;
41446;SDS011;27185;52.040;4.490;2023-04-15T03:02:24;7.90;;;4.93;;
41446;SDS011;27185;52.040;4.490;2023-04-15T03:05:10;6.88;;;4.47;;
41446;SDS011;27185;52.040;4.490;2023-04-15T03:07:57;8.50;;;5.07;;
41446;SDS011;27185;52.040;4.490;2023-04-15T03:10:42;10.77;;;5.82;;
41446;SDS011;27185;52.040;4.490;2023-04-15T03:13:28;7.72;;;4.50;;
41446;SDS011;27185;52.040;4.490;2023-04-15T03:16:14;8.68;;;4.75;;
41446;SDS011;27185;52.040;4.490;2023-04-15T03:19:00;10.85;;;5.10;;
41446;SDS011;27185;52.040;4.490;2023-04-15T03:21:45;12.38;;;5.13;;
41446;SDS011;27185;52.040;4.490;2023-04-15T03:24:31;8.02;;;5.20;;
41446;SDS011;27185;52.040;4.490;2023-04-15T03:27:16;11.15;;;5.20;;
41446;SDS011;27185;52.040;4.490;2023-04-15T03:30:02;8.70;;;4.90;;
41446;SDS011;27185;52.040;4.490;2023-04-15T03:32:48;8.98;;;4.63;;
41446;SDS011;27185;52.040;4.490;2023-04-15T03:35:33;10.35;;;5.20;;
41446;SDS011;27185;52.040;4.490;2023-04-15T03:38:19;9.35;;;5.68;;
41446;SDS011;27185;52.040;4.490;2023-04-15T03:41:05;7.70;;;5.53;;
41446;SDS011;27185;52.040;4.490;2023-04-15T03:43:50;10.88;;;5.32;;
41446;SDS011;27185;52.040;4.490;2023-04-15T03:46:36;10.27;;;5.85;;
41446;SDS011;27185;52.040;4.490;2023-04-15T03:49:21;6.88;;;4.60;;
41446;SDS011;27185;52.040;4.490;2023-04-15T03:52:08;8.55;;;4.47;;
41446;SDS011;27185;52.040;4.490;2023-04-15T03:54:53;9.15;;;4.85;;
41446;SDS011;27185;52.040;4.490;2023-04-15T03:57:40;7.93;;;4.50;;
41446;SDS011;27185;52.040;4.490;2023-04-15T04:00:25;7.63;;;4.82;;
41446;SDS011;27185;52.040;4.490;2023-04-15T04:03:11;6.43;;;4.82;;
41446;SDS011;27185;52.040;4.490;2023-04-15T04:05:56;8.63;;;4.93;;
41446;SDS011;27185;52.040;4.490;2023-04-15T04:08:42;6.93;;;4.75;;
41446;SDS011;27185;52.040;4.490;2023-04-15T04:11:27;7.95;;;4.68;;
41446;SDS011;27185;52.040;4.490;2023-04-15T04:14:13;9.02;;;4.97;;
41446;SDS011;27185;52.040;4.490;2023-04-15T04:16:59;7.07;;;4.50;;
41446;SDS011;27185;52.040;4.490;2023-04-15T04:19:44;12.25;;;4.63;;
41446;SDS011;27185;52.040;4.490;2023-04-15T04:22:30;8.98;;;5.20;;
41446;SDS011;27185;52.040;4.490;2023-04-15T04:25:16;7.07;;;4.72;;
41446;SDS011;27185;52.040;4.490;2023-04-15T04:28:01;9.30;;;5.15;;
41446;SDS011;27185;52.040;4.490;2023-04-15T04:30:47;7.80;;;5.15;;
41446;SDS011;27185;52.040;4.490;2023-04-15T04:33:33;8.70;;;4.38;;
41446;SDS011;27185;52.040;4.490;2023-04-15T04:36:19;8.55;;;4.82;;
41446;SDS011;27185;52.040;4.490;2023-04-15T04:39:04;6.93;;;4.75;;
41446;SDS011;27185;52.040;4.490;2023-04-15T04:41:50;10.32;;;5.60;;
41446;SDS011;27185;52.040;4.490;2023-04-15T04:44:38;10.90;;;5.70;;
41446;SDS011;27185;52.040;4.490;2023-04-15T04:47:24;9.85;;;5.75;;
41446;SDS011;27185;52.040;4.490;2023-04-15T04:50:09;10.10;;;5.75;;
41446;SDS011;27185;52.040;4.490;2023-04-15T04:52:55;8.10;;;5.15;;
41446;SDS011;27185;52.040;4.490;2023-04-15T04:55:41;11.35;;;5.50;;
41446;SDS011;27185;52.040;4.490;2023-04-15T04:58:26;7.88;;;5.50;;
41446;SDS011;27185;52.040;4.490;2023-04-15T05:01:12;7.82;;;5.72;;
41446;SDS011;27185;52.040;4.490;2023-04-15T05:03:57;11.32;;;5.75;;
41446;SDS011;27185;52.040;4.490;2023-04-15T05:06:43;7.95;;;5.80;;
41446;SDS011;27185;52.040;4.490;2023-04-15T05:09:29;9.20;;;5.72;;
41446;SDS011;27185;52.040;4.490;2023-04-15T05:12:16;9.50;;;5.50;;
41446;SDS011;27185;52.040;4.490;2023-04-15T05:15:02;10.95;;;6.38;;
41446;SDS011;27185;52.040;4.490;2023-04-15T05:17:48;9.60;;;5.53;;
41446;SDS011;27185;52.040;4.490;2023-04-15T05:20:34;8.05;;;5.65;;
41446;SDS011;27185;52.040;4.490;2023-04-15T05:23:19;9.40;;;6.03;;
41446;SDS011;27185;52.040;4.490;2023-04-15T05:26:05;9.23;;;5.10;;
41446;SDS011;27185;52.040;4.490;2023-04-15T05:28:50;11.20;;;5.53;;
41446;SDS011;27185;52.040;4.490;2023-04-15T05:31:36;8.27;;;5.75;;
41446;SDS011;27185;52.040;4.490;2023-04-15T05:34:22;9.18;;;5.32;;
41446;SDS011;27185;52.040;4.490;2023-04-15T05:37:07;9.48;;;5.78;;
41446;SDS011;27185;52.040;4.490;2023-04-15T05:39:53;10.98;;;6.18;;
41446;SDS011;27185;52.040;4.490;2023-04-15T05:42:38;9.20;;;5.90;;
41446;SDS011;27185;52.040;4.490;2023-04-15T05:45:24;12.50;;;6.70;;
41446;SDS011;27185;52.040;4.490;2023-04-15T05:48:10;9.88;;;6.60;;
41446;SDS011;27185;52.040;4.490;2023-04-15T05:50:55;10.63;;;6.28;;
41446;SDS011;27185;52.040;4.490;2023-04-15T05:53:41;12.75;;;8.27;;
41446;SDS011;27185;52.040;4.490;2023-04-15T05:56:27;10.27;;;6.50;;
41446;SDS011;27185;52.040;4.490;2023-04-15T05:59:13;8.88;;;6.03;;
41446;SDS011;27185;52.040;4.490;2023-04-15T06:01:58;8.20;;;5.95;;
41446;SDS011;27185;52.040;4.490;2023-04-15T06:04:44;11.40;;;6.93;;
41446;SDS011;27185;52.040;4.490;2023-04-15T06:07:29;10.45;;;6.95;;
41446;SDS011;27185;52.040;4.490;2023-04-15T06:10:15;12.18;;;6.75;;
41446;SDS011;27185;52.040;4.490;2023-04-15T06:13:04;11.32;;;7.70;;
41446;SDS011;27185;52.040;4.490;2023-04-15T06:15:49;11.45;;;7.25;;
41446;SDS011;27185;52.040;4.490;2023-04-15T06:18:35;11.95;;;7.82;;
41446;SDS011;27185;52.040;4.490;2023-04-15T06:21:21;11.23;;;6.85;;
41446;SDS011;27185;52.040;4.490;2023-04-15T06:24:06;11.75;;;7.57;;
41446;SDS011;27185;52.040;4.490;2023-04-15T06:26:52;9.52;;;7.60;;
41446;SDS011;27185;52.040;4.490;2023-04-15T06:29:37;11.32;;;6.80;;
41446;SDS011;27185;52.040;4.490;2023-04-15T06:32:23;13.98;;;7.95;;
41446;SDS011;27185;52.040;4.490;2023-04-15T06:35:09;12.55;;;7.53;;
41446;SDS011;27185;52.040;4.490;2023-04-15T06:37:55;10.20;;;7.25;;
41446;SDS011;27185;52.040;4.490;2023-04-15T06:40:41;12.00;;;7.15;;
41446;SDS011;27185;52.040;4.490;2023-04-15T06:43:27;9.20;;;7.38;;
41446;SDS011;27185;52.040;4.490;2023-04-15T06:46:12;9.95;;;7.10;;
41446;SDS011;27185;52.040;4.490;2023-04-15T06:48:58;16.38;;;8.40;;
41446;SDS011;27185;52.040;4.490;2023-04-15T06:51:44;13.85;;;8.05;;
41446;SDS011;27185;52.040;4.490;2023-04-15T06:54:29;9.80;;;7.57;;
41446;SDS011;27185;52.040;4.490;2023-04-15T06:57:15;8.63;;;6.75;;
41446;SDS011;27185;52.040;4.490;2023-04-15T07:00:01;8.10;;;6.35;;
41446;SDS011;27185;52.040;4.490;2023-04-15T07:02:47;12.73;;;7.40;;
41446;SDS011;27185;52.040;4.490;2023-04-15T07:05:33;11.70;;;7.22;;
41446;SDS011;27185;52.040;4.490;2023-04-15T07:08:19;10.15;;;7.93;;
41446;SDS011;27185;52.040;4.490;2023-04-15T07:11:04;11.63;;;7.72;;
41446;SDS011;27185;52.040;4.490;2023-04-15T07:13:51;10.13;;;7.65;;
41446;SDS011;27185;52.040;4.490;2023-04-15T07:16:37;10.15;;;8.05;;
41446;SDS011;27185;52.040;4.490;2023-04-15T07:19:22;10.48;;;7.82;;
41446;SDS011;27185;52.040;4.490;2023-04-15T07:22:08;10.55;;;7.82;;
41446;SDS011;27185;52.040;4.490;2023-04-15T07:24:54;12.38;;;8.13;;
41446;SDS011;27185;52.040;4.490;2023-04-15T07:27:39;11.98;;;8.95;;
41446;SDS011;27185;52.040;4.490;2023-04-15T07:30:25;10.48;;;7.43;;
41446;SDS011;27185;52.040;4.490;2023-04-15T07:33:11;9.40;;;7.63;;
41446;SDS011;27185;52.040;4.490;2023-04-15T07:35:56;10.55;;;7.88;;
41446;SDS011;27185;52.040;4.490;2023-04-15T07:38:42;9.75;;;7.25;;
41446;SDS011;27185;52.040;4.490;2023-04-15T07:41:28;9.77;;;7.53;;
41446;SDS011;27185;52.040;4.490;2023-04-15T07:44:14;10.13;;;7.43;;
41446;SDS011;27185;52.040;4.490;2023-04-15T07:47:01;12.40;;;7.40;;
41446;SDS011;27185;52.040;4.490;2023-04-15T07:49:47;11.95;;;8.27;;
41446;SDS011;27185;52.040;4.490;2023-04-15T07:52:33;9.73;;;7.20;;
41446;SDS011;27185;52.040;4.490;2023-04-15T07:55:23;10.50;;;6.80;;
41446;SDS011;27185;52.040;4.490;2023-04-15T07:58:08;9.93;;;7.13;;
41446;SDS011;27185;52.040;4.490;2023-04-15T08:00:54;10.32;;;6.90;;
41446;SDS011;27185;52.040;4.490;2023-04-15T08:03:39;11.40;;;8.20;;
41446;SDS011;27185;52.040;4.490;2023-04-15T08:06:25;11.15;;;7.93;;
41446;SDS011;27185;52.040;4.490;2023-04-15T08:09:11;12.68;;;7.65;;
41446;SDS011;27185;52.040;4.490;2023-04-15T08:11:57;9.30;;;7.75;;
41446;SDS011;27185;52.040;4.490;2023-04-15T08:14:42;9.45;;;7.10;;
41446;SDS011;27185;52.040;4.490;2023-04-15T08:17:28;8.32;;;6.30;;
41446;SDS011;27185;52.040;4.490;2023-04-15T08:20:13;10.25;;;6.38;;
41446;SDS011;27185;52.040;4.490;2023-04-15T08:22:59;11.57;;;6.30;;
41446;SDS011;27185;52.040;4.490;2023-04-15T08:25:44;9.18;;;6.10;;
41446;SDS011;27185;52.040;4.490;2023-04-15T08:28:30;7.53;;;6.18;;
41446;SDS011;27185;52.040;4.490;2023-04-15T08:31:16;9.00;;;4.88;;
41446;SDS011;27185;52.040;4.490;2023-04-15T08:34:02;9.73;;;5.88;;
41446;SDS011;27185;52.040;4.490;2023-04-15T08:36:48;8.93;;;5.80;;
41446;SDS011;27185;52.040;4.490;2023-04-15T08:39:34;8.52;;;6.25;;
41446;SDS011;27185;52.040;4.490;2023-04-15T08:42:22;9.75;;;6.22;;
41446;SDS011;27185;52.040;4.490;2023-04-15T08:45:16;9.85;;;6.53;;
41446;SDS011;27185;52.040;4.490;2023-04-15T08:48:02;12.50;;;8.07;;
41446;SDS011;27185;52.040;4.490;2023-04-15T08:50:50;9.30;;;6.63;;
41446;SDS011;27185;52.040;4.490;2023-04-15T08:53:36;9.05;;;7.68;;
41446;SDS011;27185;52.040;4.490;2023-04-15T08:56:23;12.23;;;7.80;;
41446;SDS011;27185;52.040;4.490;2023-04-15T08:59:10;8.65;;;6.10;;
41446;SDS011;27185;52.040;4.490;2023-04-15T09:01:56;7.78;;;5.55;;
41446;SDS011;27185;52.040;4.490;2023-04-15T09:04:42;9.32;;;6.18;;
41446;SDS011;27185;52.040;4.490;2023-04-15T09:07:28;8.95;;;5.60;;
41446;SDS011;27185;52.040;4.490;2023-04-15T09:10:13;7.72;;;5.28;;
41446;SDS011;27185;52.040;4.490;2023-04-15T09:12:59;7.15;;;5.93;;
41446;SDS011;27185;52.040;4.490;2023-04-15T09:15:46;10.65;;;5.78;;
41446;SDS011;27185;52.040;4.490;2023-04-15T09:18:33;11.57;;;5.72;;
41446;SDS011;27185;52.040;4.490;2023-04-15T09:21:20;10.52;;;5.60;;
41446;SDS011;27185;52.040;4.490;2023-04-15T09:24:07;8.50;;;5.47;;
41446;SDS011;27185;52.040;4.490;2023-04-15T09:26:53;10.95;;;5.90;;
41446;SDS011;27185;52.040;4.490;2023-04-15T09:29:42;6.93;;;4.47;;
41446;SDS011;27185;52.040;4.490;2023-04-15T09:32:27;10.55;;;4.65;;
41446;SDS011;27185;52.040;4.490;2023-04-15T09:35:13;7.18;;;4.57;;
41446;SDS011;27185;52.040;4.490;2023-04-15T09:38:03;6.63;;;3.65;;
41446;SDS011;27185;52.040;4.490;2023-04-15T09:40:50;7.78;;;4.38;;
41446;SDS011;27185;52.040;4.490;2023-04-15T09:43:38;7.45;;;3.92;;
41446;SDS011;27185;52.040;4.490;2023-04-15T09:46:43;6.03;;;2.78;;
41446;SDS011;27185;52.040;4.490;2023-04-15T09:49:29;6.00;;;2.60;;
41446;SDS011;27185;52.040;4.490;2023-04-15T09:52:15;5.03;;;2.35;;
41446;SDS011;27185;52.040;4.490;2023-04-15T09:55:01;5.53;;;2.72;;
41446;SDS011;27185;52.040;4.490;2023-04-15T09:57:46;6.47;;;2.92;;
41446;SDS011;27185;52.040;4.490;2023-04-15T10:00:32;4.95;;;2.25;;
41446;SDS011;27185;52.040;4.490;2023-04-15T10:03:25;4.85;;;1.98;;
41446;SDS011;27185;52.040;4.490;2023-04-15T10:06:11;3.85;;;2.17;;
41446;SDS011;27185;52.040;4.490;2023-04-15T10:08:59;3.45;;;2.13;;
41446;SDS011;27185;52.040;4.490;2023-04-15T10:11:45;5.75;;;2.42;;
41446;SDS011;27185;52.040;4.490;2023-04-15T10:14:34;3.65;;;1.70;;
41446;SDS011;27185;52.040;4.490;2023-04-15T10:17:22;4.18;;;1.83;;
41446;SDS011;27185;52.040;4.490;2023-04-15T10:20:11;3.25;;;1.70;;
41446;SDS011;27185;52.040;4.490;2023-04-15T10:22:58;5.57;;;1.83;;
41446;SDS011;27185;52.040;4.490;2023-04-15T10:25:45;3.90;;;1.65;;
41446;SDS011;27185;52.040;4.490;2023-04-15T10:28:31;3.78;;;1.50;;
41446;SDS011;27185;52.040;4.490;2023-04-15T10:31:17;5.60;;;2.20;;
41446;SDS011;27185;52.040;4.490;2023-04-15T10:34:04;4.82;;;1.83;;
41446;SDS011;27185;52.040;4.490;2023-04-15T10:36:50;5.63;;;1.85;;
41446;SDS011;27185;52.040;4.490;2023-04-15T10:39:39;4.75;;;1.20;;
41446;SDS011;27185;52.040;4.490;2023-04-15T10:42:32;4.75;;;1.70;;
41446;SDS011;27185;52.040;4.490;2023-04-15T10:45:18;2.75;;;1.30;;
41446;SDS011;27185;52.040;4.490;2023-04-15T10:48:05;3.10;;;1.58;;
41446;SDS011;27185;52.040;4.490;2023-04-15T10:51:01;2.63;;;1.33;;
41446;SDS011;27185;52.040;4.490;2023-04-15T10:53:49;4.27;;;2.30;;
41446;SDS011;27185;52.040;4.490;2023-04-15T10:56:34;5.57;;;2.10;;
41446;SDS011;27185;52.040;4.490;2023-04-15T10:59:20;3.97;;;2.00;;
41446;SDS011;27185;52.040;4.490;2023-04-15T11:02:06;3.55;;;1.92;;
41446;SDS011;27185;52.040;4.490;2023-04-15T11:04:53;4.88;;;2.13;;
41446;SDS011;27185;52.040;4.490;2023-04-15T11:13:19;3.20;;;1.50;;
41446;SDS011;27185;52.040;4.490;2023-04-15T11:16:06;3.22;;;2.03;;
41446;SDS011;27185;52.040;4.490;2023-04-15T11:18:52;5.90;;;2.40;;
41446;SDS011;27185;52.040;4.490;2023-04-15T11:21:39;3.65;;;2.08;;
41446;SDS011;27185;52.040;4.490;2023-04-15T11:24:25;4.30;;;1.70;;
41446;SDS011;27185;52.040;4.490;2023-04-15T11:27:19;6.18;;;2.20;;
41446;SDS011;27185;52.040;4.490;2023-04-15T11:30:20;4.57;;;2.00;;
41446;SDS011;27185;52.040;4.490;2023-04-15T11:33:09;2.53;;;1.30;;
41446;SDS011;27185;52.040;4.490;2023-04-15T11:35:56;2.50;;;1.17;;
41446;SDS011;27185;52.040;4.490;2023-04-15T11:38:43;3.40;;;1.15;;
41446;SDS011;27185;52.040;4.490;2023-04-15T11:41:31;3.85;;;1.48;;
41446;SDS011;27185;52.040;4.490;2023-04-15T11:44:17;4.82;;;1.80;;
41446;SDS011;27185;52.040;4.490;2023-04-15T11:47:20;2.53;;;1.30;;
41446;SDS011;27185;52.040;4.490;2023-04-15T11:50:14;4.85;;;1.70;;
41446;SDS011;27185;52.040;4.490;2023-04-15T11:53:04;3.35;;;1.17;;
41446;SDS011;27185;52.040;4.490;2023-04-15T11:55:51;3.88;;;1.40;;
41446;SDS011;27185;52.040;4.490;2023-04-15T11:58:37;3.67;;;1.33;;
41446;SDS011;27185;52.040;4.490;2023-04-15T12:01:36;4.43;;;1.50;;
41446;SDS011;27185;52.040;4.490;2023-04-15T12:04:23;4.53;;;1.98;;
41446;SDS011;27185;52.040;4.490;2023-04-15T12:07:09;4.80;;;1.63;;
41446;SDS011;27185;52.040;4.490;2023-04-15T12:09:56;2.63;;;1.40;;
41446;SDS011;27185;52.040;4.490;2023-04-15T12:12:42;5.90;;;2.22;;
41446;SDS011;27185;52.040;4.490;2023-04-15T12:15:27;6.40;;;2.30;;
41446;SDS011;27185;52.040;4.490;2023-04-15T12:18:16;3.42;;;1.75;;
41446;SDS011;27185;52.040;4.490;2023-04-15T12:21:10;2.60;;;1.48;;
41446;SDS011;27185;52.040;4.490;2023-04-15T12:23:56;4.95;;;1.60;;
41446;SDS011;27185;52.040;4.490;2023-04-15T12:26:52;3.60;;;1.50;;
41446;SDS011;27185;52.040;4.490;2023-04-15T12:29:40;3.58;;;1.17;;
41446;SDS011;27185;52.040;4.490;2023-04-15T12:32:27;2.53;;;1.42;;
41446;SDS011;27185;52.040;4.490;2023-04-15T12:35:13;4.57;;;1.30;;
41446;SDS011;27185;52.040;4.490;2023-04-15T12:37:58;4.40;;;1.50;;
41446;SDS011;27185;52.040;4.490;2023-04-15T12:40:45;4.82;;;1.23;;
41446;SDS011;27185;52.040;4.490;2023-04-15T12:43:31;3.63;;;1.33;;
41446;SDS011;27185;52.040;4.490;2023-04-15T12:46:16;7.43;;;1.67;;
41446;SDS011;27185;52.040;4.490;2023-04-15T12:49:02;5.28;;;1.77;;
41446;SDS011;27185;52.040;4.490;2023-04-15T12:51:49;6.65;;;2.40;;
41446;SDS011;27185;52.040;4.490;2023-04-15T12:54:35;6.70;;;2.13;;
41446;SDS011;27185;52.040;4.490;2023-04-15T12:57:21;6.90;;;2.65;;
41446;SDS011;27185;52.040;4.490;2023-04-15T13:00:07;5.00;;;1.20;;
41446;SDS011;27185;52.040;4.490;2023-04-15T13:02:54;4.25;;;1.95;;
41446;SDS011;27185;52.040;4.490;2023-04-15T13:05:39;5.18;;;1.17;;
41446;SDS011;27185;52.040;4.490;2023-04-15T13:08:25;5.25;;;1.27;;
41446;SDS011;27185;52.040;4.490;2023-04-15T13:11:11;3.38;;;1.30;;
41446;SDS011;27185;52.040;4.490;2023-04-15T13:13:56;4.35;;;1.23;;
41446;SDS011;27185;52.040;4.490;2023-04-15T13:16:43;6.07;;;1.13;;
41446;SDS011;27185;52.040;4.490;2023-04-15T13:19:28;5.40;;;1.25;;
41446;SDS011;27185;52.040;4.490;2023-04-15T13:22:14;3.78;;;1.30;;
41446;SDS011;27185;52.040;4.490;2023-04-15T13:24:59;3.65;;;1.50;;
41446;SDS011;27185;52.040;4.490;2023-04-15T13:27:45;4.75;;;1.10;;
41446;SDS011;27185;52.040;4.490;2023-04-15T13:30:31;4.72;;;1.38;;
41446;SDS011;27185;52.040;4.490;2023-04-15T13:33:16;5.30;;;1.75;;
41446;SDS011;27185;52.040;4.490;2023-04-15T13:36:02;6.60;;;1.50;;
41446;SDS011;27185;52.040;4.490;2023-04-15T13:38:48;4.63;;;1.40;;
41446;SDS011;27185;52.040;4.490;2023-04-15T13:41:33;5.28;;;1.33;;
41446;SDS011;27185;52.040;4.490;2023-04-15T13:44:19;4.63;;;1.20;;
41446;SDS011;27185;52.040;4.490;2023-04-15T13:47:05;4.35;;;1.02;;
41446;SDS011;27185;52.040;4.490;2023-04-15T13:49:50;6.00;;;1.63;;
41446;SDS011;27185;52.040;4.490;2023-04-15T13:52:38;4.00;;;1.27;;
41446;SDS011;27185;52.040;4.490;2023-04-15T13:55:23;4.72;;;1.33;;
41446;SDS011;27185;52.040;4.490;2023-04-15T13:58:10;4.68;;;1.48;;
41446;SDS011;27185;52.040;4.490;2023-04-15T14:00:55;8.63;;;1.80;;
41446;SDS011;27185;52.040;4.490;2023-04-15T14:03:41;6.05;;;1.75;;
41446;SDS011;27185;52.040;4.490;2023-04-15T14:06:27;4.93;;;1.48;;
41446;SDS011;27185;52.040;4.490;2023-04-15T14:09:13;4.20;;;1.33;;
41446;SDS011;27185;52.040;4.490;2023-04-15T14:11:58;4.45;;;1.27;;
41446;SDS011;27185;52.040;4.490;2023-04-15T14:14:45;8.52;;;1.40;;
41446;SDS011;27185;52.040;4.490;2023-04-15T14:17:31;4.38;;;1.05;;
41446;SDS011;27185;52.040;4.490;2023-04-15T14:20:17;3.33;;;1.20;;
41446;SDS011;27185;52.040;4.490;2023-04-15T14:23:03;4.32;;;1.20;;
41446;SDS011;27185;52.040;4.490;2023-04-15T14:25:49;3.13;;;1.33;;
41446;SDS011;27185;52.040;4.490;2023-04-15T14:28:35;4.28;;;1.25;;
41446;SDS011;27185;52.040;4.490;2023-04-15T14:31:22;7.00;;;1.20;;
41446;SDS011;27185;52.040;4.490;2023-04-15T14:34:08;6.88;;;1.23;;
41446;SDS011;27185;52.040;4.490;2023-04-15T14:36:55;3.50;;;1.20;;
41446;SDS011;27185;52.040;4.490;2023-04-15T14:39:40;5.35;;;1.15;;
41446;SDS011;27185;52.040;4.490;2023-04-15T14:42:26;6.45;;;1.40;;
41446;SDS011;27185;52.040;4.490;2023-04-15T14:45:11;4.82;;;1.33;;
41446;SDS011;27185;52.040;4.490;2023-04-15T14:47:57;10.00;;;2.03;;
41446;SDS011;27185;52.040;4.490;2023-04-15T14:50:43;7.47;;;1.40;;
41446;SDS011;27185;52.040;4.490;2023-04-15T14:53:29;3.00;;;1.23;;
41446;SDS011;27185;52.040;4.490;2023-04-15T14:56:14;4.72;;;1.40;;
41446;SDS011;27185;52.040;4.490;2023-04-15T14:59:00;6.15;;;1.45;;
41446;SDS011;27185;52.040;4.490;2023-04-15T15:01:46;4.22;;;1.20;;
41446;SDS011;27185;52.040;4.490;2023-04-15T15:04:32;7.30;;;1.25;;
41446;SDS011;27185;52.040;4.490;2023-04-15T15:07:18;3.90;;;1.00;;
41446;SDS011;27185;52.040;4.490;2023-04-15T15:10:05;5.10;;;1.15;;
41446;SDS011;27185;52.040;4.490;2023-04-15T15:12:51;5.18;;;1.55;;
41446;SDS011;27185;52.040;4.490;2023-04-15T15:15:36;5.63;;;1.33;;
41446;SDS011;27185;52.040;4.490;2023-04-15T15:18:22;6.10;;;1.48;;
41446;SDS011;27185;52.040;4.490;2023-04-15T15:21:09;7.07;;;1.42;;
41446;SDS011;27185;52.040;4.490;2023-04-15T15:23:55;7.05;;;1.75;;
41446;SDS011;27185;52.040;4.490;2023-04-15T15:26:40;5.88;;;1.63;;
41446;SDS011;27185;52.040;4.490;2023-04-15T15:29:26;8.48;;;1.70;;
41446;SDS011;27185;52.040;4.490;2023-04-15T15:32:11;4.88;;;1.60;;
41446;SDS011;27185;52.040;4.490;2023-04-15T15:34:57;11.05;;;1.70;;
41446;SDS011;27185;52.040;4.490;2023-04-15T15:37:43;8.55;;;1.40;;
41446;SDS011;27185;52.040;4.490;2023-04-15T15:40:29;6.00;;;1.27;;
41446;SDS011;27185;52.040;4.490;2023-04-15T15:43:15;4.63;;;1.20;;
41446;SDS011;27185;52.040;4.490;2023-04-15T15:46:01;3.08;;;1.00;;
41446;SDS011;27185;52.040;4.490;2023-04-15T15:48:47;6.15;;;1.63;;
41446;SDS011;27185;52.040;4.490;2023-04-15T15:51:33;7.82;;;2.03;;
41446;SDS011;27185;52.040;4.490;2023-04-15T15:54:18;5.65;;;1.83;;
41446;SDS011;27185;52.040;4.490;2023-04-15T15:57:04;11.02;;;2.63;;
41446;SDS011;27185;52.040;4.490;2023-04-15T15:59:50;8.02;;;2.88;;
41446;SDS011;27185;52.040;4.490;2023-04-15T16:02:36;9.30;;;1.77;;
41446;SDS011;27185;52.040;4.490;2023-04-15T16:05:21;5.22;;;1.40;;
41446;SDS011;27185;52.040;4.490;2023-04-15T16:08:07;6.80;;;0.90;;
41446;SDS011;27185;52.040;4.490;2023-04-15T16:10:53;8.38;;;1.27;;
41446;SDS011;27185;52.040;4.490;2023-04-15T16:13:38;4.53;;;1.50;;
41446;SDS011;27185;52.040;4.490;2023-04-15T16:16:25;5.05;;;1.30;;
41446;SDS011;27185;52.040;4.490;2023-04-15T16:19:10;6.40;;;1.25;;
41446;SDS011;27185;52.040;4.490;2023-04-15T16:21:56;4.05;;;1.00;;
41446;SDS011;27185;52.040;4.490;2023-04-15T16:24:41;6.45;;;1.10;;
41446;SDS011;27185;52.040;4.490;2023-04-15T16:27:27;9.18;;;1.65;;
41446;SDS011;27185;52.040;4.490;2023-04-15T16:30:12;7.93;;;0.95;;
41446;SDS011;27185;52.040;4.490;2023-04-15T16:32:58;6.18;;;1.23;;
41446;SDS011;27185;52.040;4.490;2023-04-15T16:35:44;6.72;;;1.17;;
41446;SDS011;27185;52.040;4.490;2023-04-15T16:38:30;6.10;;;1.00;;
41446;SDS011;27185;52.040;4.490;2023-04-15T16:41:15;7.95;;;1.27;;
41446;SDS011;27185;52.040;4.490;2023-04-15T16:44:02;2.97;;;0.77;;
41446;SDS011;27185;52.040;4.490;2023-04-15T16:46:49;5.78;;;1.00;;
41446;SDS011;27185;52.040;4.490;2023-04-15T16:49:34;6.30;;;1.02;;
41446;SDS011;27185;52.040;4.490;2023-04-15T16:52:20;5.72;;;1.00;;